Time;durP1;ratioP1;P1;durP2;ratioP2;P2;SDS_P1;SDS_P2;PMS_P1;PMS_P2;Temp;Humidity;BMP_temperature;BMP_pressure;BME280_temperature;BME280_humidity;BME280_pressure;Samples;Min_cycle;Max_cycle;Signal;HPM_P1;HPM_P2
2024/01/06 00:02:07;;;;;;;8.20;1.40;;;;;;;5.24;100.00;100043.81;6092115;23;20007;-94
2024/01/06 00:04:32;;;;;;;3.53;1.05;;;;;;;5.25;100.00;100040.38;6092585;23;20013;-94
2024/01/06 00:06:58;;;;;;;4.60;1.20;;;;;;;5.23;100.00;100047.28;6092637;23;20080;-93
2024/01/06 00:09:23;;;;;;;5.07;1.20;;;;;;;5.27;100.00;100044.53;6093819;23;19999;-95
2024/01/06 00:11:48;;;;;;;5.15;1.25;;;;;;;5.20;100.00;100053.38;6092023;23;20272;-94
2024/01/06 00:14:14;;;;;;;5.60;1.10;;;;;;;5.17;100.00;100057.75;6090838;23;20003;-94
2024/01/06 00:16:39;;;;;;;4.07;1.20;;;;;;;5.15;100.00;100058.66;6091870;23;20061;-94
2024/01/06 00:19:05;;;;;;;3.38;1.00;;;;;;;5.06;100.00;100058.22;6092225;23;20426;-93
2024/01/06 00:21:30;;;;;;;2.67;0.80;;;;;;;5.00;100.00;100064.41;6092411;23;20057;-95
2024/01/06 00:23:58;;;;;;;2.33;0.77;;;;;;;4.98;100.00;100073.03;6091699;23;20472;-93
2024/01/06 00:26:27;;;;;;;5.40;1.05;;;;;;;4.93;100.00;100073.22;6091273;23;20048;-94
2024/01/06 00:28:52;;;;;;;4.70;1.00;;;;;;;4.86;100.00;100082.84;6091110;23;20013;-93
2024/01/06 00:31:18;;;;;;;6.82;1.10;;;;;;;4.83;100.00;100070.19;6091529;23;19994;-94
2024/01/06 00:33:43;;;;;;;4.88;1.50;;;;;;;4.94;100.00;100083.38;6091659;23;20006;-93
2024/01/06 00:36:09;;;;;;;3.28;1.13;;;;;;;4.86;100.00;100080.31;6091576;23;20445;-94
2024/01/06 00:38:35;;;;;;;8.77;1.35;;;;;;;4.84;100.00;100088.94;6091674;23;20333;-93
2024/01/06 00:41:01;;;;;;;4.93;1.10;;;;;;;4.85;100.00;100083.75;6092320;23;20106;-93
2024/01/06 00:43:26;;;;;;;5.38;1.30;;;;;;;4.85;100.00;100095.69;6091644;23;20045;-95
2024/01/06 00:45:52;;;;;;;6.72;1.40;;;;;;;4.78;100.00;100091.72;6091434;23;20007;-93
2024/01/06 00:48:17;;;;;;;3.50;1.48;;;;;;;4.74;100.00;100092.75;6091650;23;20452;-93
2024/01/06 00:50:42;;;;;;;5.38;1.40;;;;;;;4.69;100.00;100083.50;6091694;23;20342;-94
2024/01/06 00:53:08;;;;;;;4.68;1.02;;;;;;;4.67;100.00;100095.53;6091300;23;20009;-94
2024/01/06 00:55:33;;;;;;;1.83;0.90;;;;;;;4.67;100.00;100098.06;6091154;23;20349;-94
2024/01/06 00:57:58;;;;;;;6.35;1.55;;;;;;;4.67;100.00;100095.53;6091242;23;20333;-93
2024/01/06 01:00:24;;;;;;;4.10;1.17;;;;;;;4.56;100.00;100099.38;6091493;23;20007;-95
2024/01/06 01:02:49;;;;;;;2.97;1.05;;;;;;;4.58;100.00;100108.66;6091492;23;20038;-93
2024/01/06 01:05:14;;;;;;;4.97;1.38;;;;;;;4.63;100.00;100109.34;6091527;23;20029;-93
2024/01/06 01:07:40;;;;;;;9.32;1.65;;;;;;;4.62;100.00;100111.94;6091635;23;20050;-93
2024/01/06 01:10:05;;;;;;;6.85;0.90;;;;;;;4.54;100.00;100114.78;6091334;23;20002;-94
2024/01/06 01:12:31;;;;;;;13.07;3.05;;;;;;;4.61;100.00;100106.00;6091510;23;20541;-93
2024/01/06 01:14:57;;;;;;;5.82;1.60;;;;;;;4.61;100.00;100123.03;6091552;23;20014;-95
2024/01/06 01:17:22;;;;;;;10.93;1.67;;;;;;;4.62;100.00;100117.03;6091840;23;20052;-93
2024/01/06 01:19:47;;;;;;;5.32;1.35;;;;;;;4.54;100.00;100125.00;6092031;23;20418;-94
2024/01/06 01:22:13;;;;;;;8.63;1.45;;;;;;;4.58;100.00;100121.44;6092101;23;20093;-94
2024/01/06 01:24:39;;;;;;;3.63;0.90;;;;;;;4.58;100.00;100118.88;6091527;23;20066;-93
2024/01/06 01:27:05;;;;;;;6.55;1.10;;;;;;;4.58;100.00;100136.75;6091431;23;20010;-93
2024/01/06 01:29:30;;;;;;;8.23;1.60;;;;;;;4.62;100.00;100140.06;6091340;23;20002;-90
2024/01/06 01:31:56;;;;;;;3.78;1.30;;;;;;;4.53;100.00;100132.72;6090780;23;20033;-93
2024/01/06 01:34:21;;;;;;;11.55;1.33;;;;;;;4.48;100.00;100135.44;6092297;23;20095;-93
2024/01/06 01:36:46;;;;;;;5.60;1.27;;;;;;;4.42;100.00;100136.50;6092250;23;20002;-92
2024/01/06 01:39:12;;;;;;;5.10;0.85;;;;;;;4.50;100.00;100133.66;6092557;23;20006;-95
2024/01/06 01:41:37;;;;;;;5.28;1.00;;;;;;;4.32;100.00;100130.09;6090729;23;20006;-93
2024/01/06 01:44:03;;;;;;;3.88;1.27;;;;;;;4.28;100.00;100134.47;6091133;23;20078;-92
2024/01/06 01:46:30;;;;;;;3.90;1.48;;;;;;;4.38;100.00;100139.25;6091014;23;20007;-91
2024/01/06 01:48:57;;;;;;;3.92;1.20;;;;;;;4.41;100.00;100139.13;6090515;23;20062;-92
2024/01/06 01:51:24;;;;;;;4.28;2.20;;;;;;;4.35;100.00;100134.25;6091739;23;20006;-93
2024/01/06 01:53:50;;;;;;;3.88;1.27;;;;;;;4.22;100.00;100144.91;6091588;23;20003;-93
2024/01/06 01:56:16;;;;;;;4.25;1.30;;;;;;;4.25;100.00;100144.78;6090669;23;20100;-93
2024/01/06 01:58:42;;;;;;;3.97;1.20;;;;;;;4.25;100.00;100156.75;6092185;23;20003;-94
2024/01/06 02:01:08;;;;;;;5.95;1.85;;;;;;;4.20;100.00;100156.91;6091915;23;20006;-94
2024/01/06 02:03:34;;;;;;;3.35;1.13;;;;;;;4.22;100.00;100152.56;6091255;23;20060;-95
2024/01/06 02:06:00;;;;;;;4.25;1.20;;;;;;;4.20;100.00;100153.53;6091639;23;20002;-94
2024/01/06 02:08:25;;;;;;;4.00;1.33;;;;;;;4.18;100.00;100162.94;6091624;23;20052;-94
2024/01/06 02:10:54;;;;;;;3.58;1.10;;;;;;;4.10;100.00;100165.78;6090373;23;20010;-94
2024/01/06 02:13:19;;;;;;;4.57;1.17;;;;;;;4.12;100.00;100169.13;6093051;23;20337;-93
2024/01/06 02:15:45;;;;;;;4.82;1.25;;;;;;;4.11;100.00;100171.72;6090778;23;20011;-95
2024/01/06 02:18:10;;;;;;;2.08;0.82;;;;;;;4.02;100.00;100181.38;6091510;23;20006;-94
2024/01/06 02:20:36;;;;;;;5.65;1.73;;;;;;;4.06;100.00;100184.63;6091496;23;20088;-94
2024/01/06 02:23:02;;;;;;;3.58;0.82;;;;;;;3.96;100.00;100190.97;6091631;23;20034;-94
2024/01/06 02:25:28;;;;;;;5.40;0.98;;;;;;;3.89;100.00;100189.50;6090029;23;20013;-93
2024/01/06 02:27:54;;;;;;;4.15;1.10;;;;;;;3.85;100.00;100192.16;6091908;23;20034;-94
2024/01/06 02:30:19;;;;;;;2.88;0.80;;;;;;;3.89;100.00;100197.97;6091666;23;20038;-94
2024/01/06 02:32:45;;;;;;;2.63;1.00;;;;;;;3.99;100.00;100195.94;6091907;23;20441;-93
2024/01/06 02:35:10;;;;;;;6.72;0.80;;;;;;;3.99;100.00;100198.50;6092033;23;20002;-94
2024/01/06 02:37:35;;;;;;;7.70;1.55;;;;;;;3.84;100.00;100210.91;6092039;23;20007;-95
2024/01/06 02:40:01;;;;;;;3.47;0.90;;;;;;;3.74;100.00;100201.06;6090942;23;20034;-93
2024/01/06 02:42:26;;;;;;;4.05;0.75;;;;;;;3.70;100.00;100192.66;6091106;23;20013;-95
2024/01/06 02:44:52;;;;;;;3.65;0.90;;;;;;;3.84;100.00;100200.69;6091429;23;20057;-94
2024/01/06 02:47:17;;;;;;;2.88;0.80;;;;;;;3.86;100.00;100198.09;6090650;23;20006;-94
2024/01/06 02:49:43;;;;;;;5.55;2.33;;;;;;;3.89;100.00;100209.91;6091349;23;20504;-94
2024/01/06 02:52:08;;;;;;;7.15;1.00;;;;;;;3.81;100.00;100205.91;6091787;23;20002;-95
2024/01/06 02:54:33;;;;;;;4.47;0.95;;;;;;;3.85;100.00;100212.59;6090557;23;20037;-94
2024/01/06 02:56:59;;;;;;;1.90;0.70;;;;;;;3.76;100.00;100218.00;6091265;23;20045;-94
2024/01/06 02:59:24;;;;;;;4.28;0.95;;;;;;;3.70;100.00;100215.63;6091576;23;20443;-94
2024/01/06 03:01:49;;;;;;;3.10;0.70;;;;;;;3.83;100.00;100224.56;6092775;23;20006;-94
2024/01/06 03:04:15;;;;;;;2.92;0.90;;;;;;;3.73;100.00;100219.78;6091226;23;20045;-94
2024/01/06 03:06:40;;;;;;;4.68;0.80;;;;;;;3.79;100.00;100220.44;6090374;23;20334;-93
2024/01/06 03:09:06;;;;;;;5.10;0.70;;;;;;;3.72;100.00;100218.97;6089838;23;20009;-93
2024/01/06 03:11:31;;;;;;;5.60;1.38;;;;;;;3.85;100.00;100227.91;6090240;23;20002;-92
2024/01/06 03:13:56;;;;;;;5.25;0.90;;;;;;;3.72;100.00;100231.72;6090585;23;20446;-93
2024/01/06 03:16:22;;;;;;;4.03;1.77;;;;;;;3.78;100.00;100241.75;6089004;23;20082;-93
2024/01/06 03:18:48;;;;;;;3.17;0.73;;;;;;;3.71;100.00;100235.19;6089186;23;20020;-94
2024/01/06 03:21:20;;;;;;;3.20;0.98;;;;;;;3.66;100.00;100242.16;6088868;23;20003;-93
2024/01/06 03:23:46;;;;;;;;;;;;;;;3.64;100.00;100249.00;6088737;23;20011;-93
2024/01/06 03:26:11;;;;;;;4.93;0.70;;;;;;;3.62;100.00;100240.56;6242631;22;20427;-92
2024/01/06 03:28:37;;;;;;;4.28;1.10;;;;;;;3.66;100.00;100247.25;6089867;23;20325;-93
2024/01/06 03:31:02;;;;;;;1.55;0.50;;;;;;;3.67;100.00;100248.91;6088902;23;20050;-92
2024/01/06 03:33:28;;;;;;;7.97;0.98;;;;;;;3.53;100.00;100244.22;6090496;23;20025;-93
2024/01/06 03:35:53;;;;;;;8.95;3.40;;;;;;;3.51;100.00;100261.34;6090903;23;20136;-94
2024/01/06 03:38:18;;;;;;;6.90;1.08;;;;;;;3.45;100.00;100247.91;6090051;23;20346;-92
2024/01/06 03:40:44;;;;;;;5.00;1.00;;;;;;;3.48;100.00;100251.19;6090730;23;20049;-91
2024/01/06 03:43:09;;;;;;;5.15;0.80;;;;;;;3.41;100.00;100250.56;6091359;23;20002;-94
2024/01/06 03:45:34;;;;;;;6.18;0.88;;;;;;;3.47;100.00;100262.31;6090437;23;20034;-92
2024/01/06 03:48:00;;;;;;;3.30;0.57;;;;;;;3.38;100.00;100258.31;6089863;23;20006;-94
2024/01/06 03:50:25;;;;;;;5.93;0.60;;;;;;;3.47;100.00;100269.13;6090423;23;20334;-93
2024/01/06 03:52:51;;;;;;;9.50;1.10;;;;;;;3.27;100.00;100252.72;6091630;23;20010;-93
2024/01/06 03:55:16;;;;;;;6.68;0.77;;;;;;;3.36;100.00;100260.06;6091011;23;20502;-92
2024/01/06 03:57:42;;;;;;;9.80;2.55;;;;;;;3.59;100.00;100271.28;6090544;23;20108;-92
2024/01/06 04:00:08;;;;;;;5.47;1.00;;;;;;;3.57;100.00;100278.16;6092589;23;20003;-92
2024/01/06 04:02:34;;;;;;;8.15;0.68;;;;;;;3.49;100.00;100280.09;6090468;23;20006;-91
2024/01/06 04:04:59;;;;;;;4.53;0.98;;;;;;;3.49;100.00;100275.00;6091047;23;20003;-92
2024/01/06 04:07:24;;;;;;;7.68;1.13;;;;;;;3.54;100.00;100273.16;6090831;23;20021;-92
2024/01/06 04:09:50;;;;;;;3.45;0.88;;;;;;;3.48;100.00;100263.13;6091705;23;20314;-93
2024/01/06 04:12:15;;;;;;;2.33;0.95;;;;;;;3.51;100.00;100273.22;6089696;23;20006;-91
2024/01/06 04:14:40;;;;;;;7.85;0.80;;;;;;;3.48;100.00;100275.88;6090279;23;20014;-94
2024/01/06 04:17:06;;;;;;;6.30;0.90;;;;;;;3.43;100.00;100281.94;6008953;23;1958855;-93
2024/01/06 04:19:31;;;;;;;3.80;1.02;;;;;;;3.41;100.00;100288.84;6092124;23;20018;-94
2024/01/06 04:21:57;;;;;;;6.95;1.67;;;;;;;3.33;100.00;100295.03;6092367;23;20014;-92
2024/01/06 04:24:22;;;;;;;4.57;0.90;;;;;;;3.25;100.00;100290.19;6091432;23;20095;-93
2024/01/06 04:26:49;;;;;;;4.38;0.70;;;;;;;3.40;100.00;100307.56;6092708;23;20002;-93
2024/01/06 04:29:14;;;;;;;7.32;1.13;;;;;;;3.29;100.00;100304.53;6093524;23;20041;-94
2024/01/06 04:31:43;;;;;;;3.58;0.70;;;;;;;3.17;100.00;100304.84;6091882;23;20008;-93
2024/01/06 04:34:08;;;;;;;8.80;0.90;;;;;;;3.09;100.00;100311.91;6091576;23;20063;-94
2024/01/06 04:36:34;;;;;;;2.88;0.93;;;;;;;3.00;100.00;100318.09;6091572;23;20061;-94
2024/01/06 04:38:59;;;;;;;3.45;0.70;;;;;;;2.95;100.00;100310.59;6091661;23;20011;-93
2024/01/06 04:41:25;;;;;;;3.67;0.60;;;;;;;2.87;100.00;100304.03;6092817;23;20034;-93
2024/01/06 04:43:50;;;;;;;4.25;0.75;;;;;;;2.89;100.00;100310.75;6092041;23;20007;-92
2024/01/06 04:46:15;;;;;;;5.15;1.77;;;;;;;2.79;100.00;100314.44;6092282;23;20017;-94
2024/01/06 04:48:41;;;;;;;2.80;0.68;;;;;;;2.73;100.00;100312.91;6091622;23;20003;-94
2024/01/06 04:51:09;;;;;;;3.78;0.88;;;;;;;2.74;100.00;100322.19;6092131;23;20006;-94
2024/01/06 04:53:38;;;;;;;4.22;0.60;;;;;;;2.73;100.00;100324.78;6091452;23;20007;-94
2024/01/06 04:56:04;;;;;;;5.53;0.75;;;;;;;2.91;100.00;100326.00;6091814;23;20344;-95
2024/01/06 04:58:29;;;;;;;7.72;2.38;;;;;;;2.99;100.00;100322.34;6092725;23;20057;-93
2024/01/06 05:00:54;;;;;;;4.03;1.00;;;;;;;2.89;100.00;100332.84;6092718;23;20474;-94
2024/01/06 05:03:20;;;;;;;5.82;0.63;;;;;;;3.02;100.00;100326.53;6092520;23;20021;-96
2024/01/06 05:05:45;;;;;;;4.70;0.50;;;;;;;3.08;100.00;100325.53;6092076;23;20010;-95
2024/01/06 05:08:11;;;;;;;7.47;1.00;;;;;;;2.97;100.00;100323.28;6092190;23;20011;-96
2024/01/06 05:10:36;;;;;;;8.63;1.33;;;;;;;3.00;100.00;100333.41;6091897;23;20013;-94
2024/01/06 05:13:01;;;;;;;8.98;0.90;;;;;;;2.97;100.00;100333.47;6092642;23;20060;-94
2024/01/06 05:15:27;;;;;;;6.22;0.88;;;;;;;2.96;100.00;100335.19;6092795;23;20085;-95
2024/01/06 05:17:52;;;;;;;11.75;0.80;;;;;;;2.93;100.00;100324.25;6092270;23;20141;-93
2024/01/06 05:20:18;;;;;;;7.78;1.02;;;;;;;3.04;100.00;100329.88;6092112;23;19998;-94
2024/01/06 05:22:43;;;;;;;12.48;1.27;;;;;;;3.02;100.00;100341.00;6091967;23;20081;-94
2024/01/06 05:25:09;;;;;;;2.35;0.82;;;;;;;2.89;100.00;100336.22;6092548;23;20006;-96
2024/01/06 05:27:34;;;;;;;8.88;1.08;;;;;;;2.90;100.00;100332.81;6093471;23;20007;-94
2024/01/06 05:30:00;;;;;;;10.32;1.80;;;;;;;2.94;100.00;100343.75;6092446;23;20006;-94
2024/01/06 05:32:25;;;;;;;5.63;0.80;;;;;;;2.75;100.00;100346.78;6092553;23;20468;-94
2024/01/06 05:34:51;;;;;;;8.45;1.33;;;;;;;2.80;100.00;100359.41;6091981;23;20013;-92
2024/01/06 05:37:16;;;;;;;7.28;0.90;;;;;;;2.76;100.00;100350.19;6092391;23;20037;-93
2024/01/06 05:39:41;;;;;;;8.77;1.02;;;;;;;3.02;100.00;100361.38;6091719;23;20013;-96
2024/01/06 05:42:11;;;;;;;7.55;1.05;;;;;;;2.82;100.00;100359.38;6092183;23;20013;-93
2024/01/06 05:44:37;;;;;;;12.32;1.08;;;;;;;3.11;100.00;100366.25;6091659;23;19999;-95
2024/01/06 05:47:02;;;;;;;8.35;0.73;;;;;;;3.22;100.00;100364.25;6092335;23;20064;-93
2024/01/06 05:49:28;;;;;;;8.65;0.90;;;;;;;3.18;100.00;100372.84;6093943;23;20093;-94
2024/01/06 05:51:53;;;;;;;8.20;0.90;;;;;;;3.17;100.00;100376.25;6092250;23;20007;-94
2024/01/06 05:54:18;;;;;;;8.07;1.27;;;;;;;3.16;100.00;100369.50;6091009;23;20042;-94
2024/01/06 05:56:44;;;;;;;7.20;0.95;;;;;;;3.26;100.00;100383.66;6091002;23;20144;-94
2024/01/06 05:59:09;;;;;;;3.10;0.77;;;;;;;3.33;100.00;100387.72;6091994;23;20029;-93
2024/01/06 06:01:35;;;;;;;4.10;0.70;;;;;;;3.29;100.00;100388.69;6092068;23;20089;-93
2024/01/06 06:04:00;;;;;;;5.00;1.10;;;;;;;3.34;100.00;100399.59;6091449;23;20310;-93
2024/01/06 06:06:25;;;;;;;5.03;1.00;;;;;;;3.29;100.00;100395.47;6091609;23;20007;-94
2024/01/06 06:08:51;;;;;;;8.05;1.08;;;;;;;3.33;100.00;100408.13;6092467;23;20441;-94
2024/01/06 06:11:16;;;;;;;6.65;1.08;;;;;;;3.41;100.00;100401.09;6092973;23;20007;-93
2024/01/06 06:13:41;;;;;;;4.32;0.70;;;;;;;3.42;100.00;100417.25;6091660;23;20452;-92
2024/01/06 06:16:09;;;;;;;4.07;0.60;;;;;;;3.43;100.00;100422.28;6091879;23;20330;-92
2024/01/06 06:18:35;;;;;;;6.53;0.80;;;;;;;3.47;100.00;100419.66;6091899;23;20274;-93
2024/01/06 06:21:03;;;;;;;9.20;1.65;;;;;;;3.59;100.00;100414.22;6091374;23;20336;-93
2024/01/06 06:23:28;;;;;;;4.47;0.77;;;;;;;3.59;100.00;100414.22;6091403;23;20015;-93
2024/01/06 06:25:54;;;;;;;5.32;1.10;;;;;;;3.64;100.00;100420.00;6091762;23;20014;-93
2024/01/06 06:28:19;;;;;;;7.88;0.95;;;;;;;3.75;100.00;100424.78;6091783;23;20002;-94
2024/01/06 06:30:45;;;;;;;9.02;0.85;;;;;;;3.83;100.00;100431.34;6091497;23;20010;-93
2024/01/06 06:33:10;;;;;;;4.93;1.00;;;;;;;3.85;100.00;100436.41;6090568;23;20434;-94
2024/01/06 06:35:35;;;;;;;4.80;1.00;;;;;;;3.95;100.00;100439.50;6091039;23;20014;-94
2024/01/06 06:38:01;;;;;;;7.97;1.48;;;;;;;4.07;100.00;100450.22;6091724;23;20006;-93
2024/01/06 06:40:26;;;;;;;5.72;1.13;;;;;;;3.98;100.00;100453.03;6092956;23;19994;-93
2024/01/06 06:42:51;;;;;;;9.07;1.27;;;;;;;4.00;100.00;100452.97;6091446;23;20065;-94
2024/01/06 06:45:20;;;;;;;6.30;0.93;;;;;;;4.08;100.00;100456.97;6091943;23;20011;-94
2024/01/06 06:47:45;;;;;;;4.22;0.70;;;;;;;4.10;100.00;100454.38;6091009;23;20441;-96
2024/01/06 06:50:11;;;;;;;11.27;1.23;;;;;;;4.05;100.00;100453.69;6091722;23;20018;-94
2024/01/06 06:52:36;;;;;;;3.95;1.17;;;;;;;4.14;100.00;100463.59;6091487;23;20461;-94
2024/01/06 06:55:02;;;;;;;7.20;1.27;;;;;;;4.12;100.00;100473.06;6091106;23;20497;-94
2024/01/06 06:57:27;;;;;;;4.55;1.00;;;;;;;4.18;100.00;100477.97;6093019;23;20094;-92
2024/01/06 06:59:52;;;;;;;9.85;1.02;;;;;;;4.23;100.00;100482.94;6091736;23;20089;-94
2024/01/06 07:02:18;;;;;;;5.82;0.93;;;;;;;4.23;100.00;100494.00;6090863;23;20499;-93
2024/01/06 07:04:43;;;;;;;4.63;0.90;;;;;;;4.31;100.00;100482.69;6091134;23;20034;-92
2024/01/06 07:07:09;;;;;;;4.35;0.82;;;;;;;4.28;100.00;100479.34;6092194;23;20006;-94
2024/01/06 07:09:34;;;;;;;4.32;1.48;;;;;;;4.28;100.00;100491.31;6092764;23;20002;-94
2024/01/06 07:12:00;;;;;;;5.63;1.10;;;;;;;4.34;100.00;100486.03;6091750;23;20365;-94
2024/01/06 07:14:25;;;;;;;9.93;1.10;;;;;;;4.47;100.00;100500.06;6092773;23;20010;-93
2024/01/06 07:16:54;;;;;;;5.65;1.15;;;;;;;4.36;100.00;100501.28;6093100;23;20403;-92
2024/01/06 07:19:19;;;;;;;5.18;0.70;;;;;;;4.36;100.00;100504.66;6092430;23;20006;-92
2024/01/06 07:21:44;;;;;;;13.00;1.02;;;;;;;4.37;100.00;100503.81;6093369;23;20025;-93
2024/01/06 07:24:10;;;;;;;5.15;0.95;;;;;;;4.41;100.00;100514.75;6093889;23;20007;-95
2024/01/06 07:26:36;;;;;;;6.85;1.02;;;;;;;4.32;100.00;100522.69;6092326;23;20049;-95
2024/01/06 07:29:01;;;;;;;3.58;0.93;;;;;;;4.26;100.00;100533.94;6092505;23;20053;-93
2024/01/06 07:31:27;;;;;;;6.20;1.00;;;;;;;4.21;100.00;100536.63;6092821;23;20442;-95
2024/01/06 07:33:52;;;;;;;4.63;0.65;;;;;;;4.31;100.00;100541.47;6092681;23;20010;-94
2024/01/06 07:36:18;;;;;;;6.15;0.98;;;;;;;4.36;100.00;100540.44;6092610;23;20082;-95
2024/01/06 07:38:45;;;;;;;8.13;0.82;;;;;;;4.35;100.00;100545.63;6091753;23;20026;-93
2024/01/06 07:41:11;;;;;;;5.90;0.50;;;;;;;4.28;100.00;100553.44;6092422;23;20568;-94
2024/01/06 07:43:36;;;;;;;8.60;1.50;;;;;;;4.23;100.00;100562.97;6092232;23;20235;-94
2024/01/06 07:46:03;;;;;;;3.13;0.75;;;;;;;4.19;100.00;100563.09;6092669;23;20010;-94
2024/01/06 07:48:29;;;;;;;3.08;0.73;;;;;;;4.19;100.00;100569.03;6092213;23;20093;-95
2024/01/06 07:50:54;;;;;;;4.45;0.70;;;;;;;4.12;100.00;100569.25;6092363;23;20018;-94
2024/01/06 07:53:20;;;;;;;5.40;1.00;;;;;;;4.10;100.00;100577.00;6091946;23;20109;-94
2024/01/06 07:55:45;;;;;;;5.57;0.68;;;;;;;4.13;100.00;100576.06;6091416;23;20517;-94
2024/01/06 07:58:11;;;;;;;2.10;0.55;;;;;;;4.09;100.00;100577.84;6092524;23;20010;-94
2024/01/06 08:00:37;;;;;;;7.20;1.33;;;;;;;4.06;100.00;100577.94;6092092;23;20002;-93
2024/01/06 08:03:05;;;;;;;4.03;0.93;;;;;;;4.07;100.00;100589.81;6091813;23;20256;-95
2024/01/06 08:05:31;;;;;;;5.43;0.82;;;;;;;4.06;100.00;100586.44;6092021;23;20258;-94
2024/01/06 08:07:58;;;;;;;4.95;1.05;;;;;;;4.07;100.00;100589.81;6092440;23;20121;-95
2024/01/06 08:10:23;;;;;;;1.73;0.70;;;;;;;4.08;100.00;100604.28;6091746;23;20006;-93
2024/01/06 08:12:48;;;;;;;4.45;0.85;;;;;;;4.06;100.00;100598.38;6092645;23;20090;-94
2024/01/06 08:15:14;;;;;;;4.53;0.75;;;;;;;4.10;100.00;100605.09;6093543;23;20014;-95
2024/01/06 08:17:40;;;;;;;2.05;0.60;;;;;;;4.14;100.00;100611.75;6092909;23;20044;-94
2024/01/06 08:20:08;;;;;;;2.13;0.70;;;;;;;4.15;100.00;100618.56;6093215;23;20095;-94
2024/01/06 08:22:33;;;;;;;2.28;1.13;;;;;;;4.19;100.00;100625.25;6093226;23;20012;-95
2024/01/06 08:24:59;;;;;;;3.42;0.75;;;;;;;4.19;100.00;100635.47;6092092;23;20062;-95
2024/01/06 08:27:24;;;;;;;3.28;0.82;;;;;;;4.20;100.00;100631.22;6090042;23;19995;-92
2024/01/06 08:29:50;;;;;;;8.63;0.95;;;;;;;4.13;100.00;100634.81;6090746;23;20017;-93
2024/01/06 08:32:16;;;;;;;7.22;0.98;;;;;;;4.06;100.00;100632.41;6095391;23;20422;-93
2024/01/06 08:34:42;;;;;;;10.70;1.20;;;;;;;4.04;100.00;100628.22;6092730;23;20006;-94
2024/01/06 08:37:07;;;;;;;4.82;0.65;;;;;;;4.08;100.00;100630.66;6091171;23;20007;-94
2024/01/06 08:39:33;;;;;;;6.85;1.25;;;;;;;4.06;100.00;100629.03;6091606;23;19999;-94
2024/01/06 08:41:58;;;;;;;2.47;0.63;;;;;;;4.10;100.00;100633.19;6091792;23;20010;-95
2024/01/06 08:44:24;;;;;;;7.60;1.27;;;;;;;4.21;100.00;100643.94;6096090;23;20460;-95
2024/01/06 08:46:50;;;;;;;6.65;1.00;;;;;;;4.18;100.00;100641.47;6096548;23;20052;-94
2024/01/06 08:49:15;;;;;;;4.68;0.77;;;;;;;4.27;100.00;100656.53;6091428;23;20433;-92
2024/01/06 08:51:41;;;;;;;4.72;2.28;;;;;;;4.31;100.00;100652.16;6093907;23;19998;-93
2024/01/06 08:54:16;;;;;;;;;;;;;;;;;;;;;
2024/01/06 08:56:43;;;;;;;6.43;1.02;;;;;;;4.43;100.00;100668.88;6094125;23;20085;-93
2024/01/06 08:59:08;;;;;;;4.18;0.90;;;;;;;4.46;100.00;100676.44;6089371;23;20057;-94
2024/01/06 09:01:35;;;;;;;5.65;1.20;;;;;;;4.45;100.00;100672.22;6091347;23;20467;-94
2024/01/06 09:04:02;;;;;;;3.03;0.73;;;;;;;4.46;100.00;100677.31;6091086;23;20006;-94
2024/01/06 09:06:27;;;;;;;2.42;1.10;;;;;;;4.49;100.00;100684.88;6089770;23;20060;-93
2024/01/06 09:08:52;;;;;;;5.60;1.05;;;;;;;4.47;100.00;100680.69;6090172;23;20068;-92
2024/01/06 09:11:18;;;;;;;6.25;0.90;;;;;;;4.52;100.00;100689.06;6091211;23;20002;-91
2024/01/06 09:13:43;;;;;;;4.05;0.80;;;;;;;4.57;100.00;100689.78;6091133;23;20020;-93
2024/01/06 09:16:10;;;;;;;5.47;1.10;;;;;;;4.60;100.00;100697.34;6090556;23;20032;-93
2024/01/06 09:18:36;;;;;;;7.25;1.17;;;;;;;4.66;100.00;100707.41;6091578;23;20065;-94
2024/01/06 09:21:01;;;;;;;3.88;1.10;;;;;;;4.72;100.00;100707.22;6091796;23;20366;-94
2024/01/06 09:23:26;;;;;;;3.65;1.20;;;;;;;4.75;100.00;100705.47;6091285;23;20010;-93
2024/01/06 09:25:52;;;;;;;3.63;0.88;;;;;;;4.77;100.00;100711.38;6090861;23;20010;-94
2024/01/06 09:28:18;;;;;;;5.07;0.80;;;;;;;4.82;100.00;100717.19;6089942;23;20429;-92
2024/01/06 09:30:44;;;;;;;2.58;0.68;;;;;;;4.88;100.00;100722.16;6090605;23;20081;-95
2024/01/06 09:33:09;;;;;;;7.72;2.05;;;;;;;4.85;100.00;100722.22;6091006;23;20437;-93
2024/01/06 09:35:35;;;;;;;6.47;1.15;;;;;;;4.92;100.00;100726.25;6091746;23;20011;-93
2024/01/06 09:38:01;;;;;;;8.98;1.38;;;;;;;5.03;100.00;100737.03;6090836;23;20010;-95
2024/01/06 09:40:26;;;;;;;5.72;1.20;;;;;;;4.93;100.00;100723.66;6090701;23;20006;-94
2024/01/06 09:42:53;;;;;;;5.18;1.13;;;;;;;4.92;100.00;100736.50;6090330;23;20064;-94
2024/01/06 09:45:20;;;;;;;6.53;0.90;;;;;;;4.92;100.00;100728.81;6091074;23;20010;-94
2024/01/06 09:47:49;;;;;;;2.60;0.80;;;;;;;5.13;100.00;100735.88;6090789;23;19995;-94
2024/01/06 09:50:19;;;;;;;5.25;1.30;;;;;;;5.19;100.00;100731.44;6093200;23;20489;-94
2024/01/06 09:52:53;;;;;;;2.88;1.00;;;;;;;5.23;100.00;100733.88;6089559;23;20002;-94
2024/01/06 09:55:25;;;;;;;2.63;0.50;;;;;;;5.34;100.00;100751.44;6089672;23;20065;-94
2024/01/06 09:57:50;;;;;;;10.70;2.50;;;;;;;5.34;100.00;100751.44;6089168;23;20041;-92
2024/01/06 10:00:17;;;;;;;4.32;0.90;;;;;;;5.31;100.00;100757.50;6088630;23;20010;-93
2024/01/06 10:02:43;;;;;;;3.17;0.93;;;;;;;5.33;100.00;100755.72;6088853;23;20014;-93
2024/01/06 10:05:09;;;;;;;4.78;1.05;;;;;;;5.45;100.00;100762.19;6088163;23;20052;-94
2024/01/06 10:07:35;;;;;;;3.15;1.20;;;;;;;5.46;100.00;100765.59;6087961;23;20093;-93
2024/01/06 10:10:00;;;;;;;10.35;1.75;;;;;;;5.54;100.00;100749.13;6091590;23;20010;-92
2024/01/06 10:12:26;;;;;;;6.18;1.35;;;;;;;5.61;100.00;100764.25;6089331;23;20429;-94
2024/01/06 10:14:52;;;;;;;3.35;1.30;;;;;;;5.62;100.00;100759.09;6091395;23;20010;-95
2024/01/06 10:17:20;;;;;;;4.25;1.00;;;;;;;5.63;100.00;100754.81;6089279;23;20018;-94
2024/01/06 10:19:47;;;;;;;6.72;1.65;;;;;;;5.69;100.00;100759.75;6089842;23;20006;-93
2024/01/06 10:22:13;;;;;;;6.85;1.92;;;;;;;5.68;100.00;100760.63;6089298;23;20002;-94
2024/01/06 10:24:38;;;;;;;8.10;1.80;;;;;;;5.76;100.00;100774.88;6089357;23;20024;-95
2024/01/06 10:27:04;;;;;;;5.20;1.40;;;;;;;5.65;100.00;100761.56;6090584;23;20077;-96
2024/01/06 10:29:29;;;;;;;4.38;1.13;;;;;;;5.66;100.00;100764.97;6091927;23;20037;-92
2024/01/06 10:32:00;;;;;;;10.35;2.13;;;;;;;5.66;100.00;100764.97;6095352;23;20003;-96
2024/01/06 10:34:26;;;;;;;4.45;1.45;;;;;;;5.63;100.00;100762.50;6096328;23;20064;-96
2024/01/06 10:36:53;;;;;;;6.57;1.48;;;;;;;5.47;100.00;100767.28;6099775;23;20010;-96
2024/01/06 10:42:12;;;;;;;6.88;1.77;;;;;;;5.48;100.00;100772.31;6136301;22;20018;-96
2024/01/06 10:44:41;;;;;;;7.82;1.90;;;;;;;5.60;100.00;100762.59;6145732;23;20013;-95
2024/01/06 10:47:12;;;;;;;10.02;2.20;;;;;;;5.85;100.00;100760.91;6139058;23;20014;-96
2024/01/06 11:50:04;;;;;;;6.50;2.17;;;;;;;7.12;100.00;100791.59;6125988;22;19908;-96
2024/01/06 11:52:31;;;;;;;5.65;1.90;;;;;;;7.20;100.00;100794.69;6142822;23;20010;-96
2024/01/06 11:54:57;;;;;;;6.38;1.90;;;;;;;7.18;100.00;100799.03;6121620;23;20005;-95
2024/01/06 11:57:22;;;;;;;5.53;2.25;;;;;;;7.24;100.00;100790.25;6119503;23;20217;-94
2024/01/06 11:59:49;;;;;;;11.52;3.72;;;;;;;7.25;100.00;100787.63;6120717;23;20440;-96
2024/01/06 12:02:18;;;;;;;10.57;1.92;;;;;;;7.22;100.00;100787.75;6120947;23;20006;-95
2024/01/06 12:04:49;;;;;;;7.68;1.88;;;;;;;7.36;100.00;100781.25;6121338;23;20012;-96
2024/01/06 12:07:15;;;;;;;6.55;2.00;;;;;;;7.45;100.00;100792.00;6121607;23;20017;-94
2024/01/06 12:09:43;;;;;;;8.40;1.90;;;;;;;7.57;100.00;100777.84;6120731;23;20075;-94
2024/01/06 12:12:10;;;;;;;7.05;1.58;;;;;;;7.52;100.00;100787.47;6116778;23;20033;-94
2024/01/06 12:14:36;;;;;;;5.57;1.75;;;;;;;7.37;100.00;100798.34;6120803;23;20010;-94
2024/01/06 12:17:04;;;;;;;4.78;1.65;;;;;;;7.98;100.00;100795.91;6119681;23;20436;-96
2024/01/06 12:19:31;;;;;;;4.47;1.73;;;;;;;8.47;100.00;100796.47;6122837;23;20101;-96
2024/01/06 12:21:57;;;;;;;6.40;1.60;;;;;;;8.64;100.00;100798.31;6120876;23;20080;-92
2024/01/06 12:24:22;;;;;;;5.32;1.73;;;;;;;8.56;100.00;100790.94;6120753;23;20044;-94